Abrams, Wisconsin
Current Conditions -  °F | °C
As of 8:35 PM on Wednesday 22 Oct 2014 (Local Time) from KOCQ Reporting Station
Scattered Clouds Scattered Clouds  
Wind Chill: 38°   Ceiling: Unl
Heat Index: 42°   Visibility: 10mi
Dew Point: 41°   Wind: 6mph
Humidity: 96%   Direction: 160°SSE
Pressure: 30.26"   Gusts: NA
Location:  44.78°N, 88.06°W
Report Text: KOCQ 230135Z AUTO 16005KT 10SM SCT011 06/05 A3026 RMK AO1 T00550049
Loading
Personal Weather Stations






























Interactive Weather Map New forecast layout! Learn more

10-Day Weather Forecast

Advertisements
Track Severe Weather on mobile